createdAt,value
2018-04-06T00:00:09.558Z,88.00
2018-04-06T00:02:37.335Z,88.00
2018-04-06T00:05:04.768Z,88.00
2018-04-06T00:07:32.264Z,88.20
2018-04-06T00:10:00.269Z,88.20
2018-04-06T00:12:28.101Z,88.10
2018-04-06T00:14:56.344Z,88.70
2018-04-06T00:17:28.641Z,88.70
2018-04-06T00:19:57.045Z,89.00
2018-04-06T00:22:25.085Z,89.20
2018-04-06T00:24:52.528Z,89.20
2018-04-06T00:27:20.729Z,89.30
2018-04-06T00:29:48.181Z,89.20
2018-04-06T00:32:15.625Z,89.30
2018-04-06T00:34:43.090Z,89.30
2018-04-06T00:37:10.527Z,89.20
2018-04-06T00:39:39.336Z,89.20
2018-04-06T00:42:06.788Z,89.30
2018-04-06T00:44:35.032Z,89.60
2018-04-06T00:47:02.468Z,89.50
2018-04-06T00:49:29.900Z,89.50
2018-04-06T00:51:57.358Z,89.70
2018-04-06T00:54:24.958Z,89.60
2018-04-06T00:56:53.162Z,89.70
2018-04-06T00:59:20.652Z,89.70
2018-04-06T01:01:48.084Z,89.60
2018-04-06T01:04:15.524Z,89.70
2018-04-06T01:06:43.016Z,89.50
2018-04-06T01:09:10.460Z,89.80
2018-04-06T01:11:38.301Z,89.80
2018-04-06T01:14:18.780Z,89.90
2018-04-06T01:16:46.209Z,89.80
2018-04-06T01:19:14.400Z,90.00
2018-04-06T01:21:41.892Z,90.00
2018-04-06T01:24:09.376Z,90.10
2018-04-06T01:26:36.816Z,90.10
2018-04-06T01:29:04.379Z,90.10
2018-04-06T01:31:31.841Z,90.10
2018-04-06T01:33:59.277Z,90.10
2018-04-06T01:36:26.760Z,90.10
2018-04-06T01:38:54.197Z,90.10
2018-04-06T01:41:21.643Z,90.20
2018-04-06T01:43:50.540Z,90.20
2018-04-06T01:46:17.974Z,90.20
2018-04-06T01:48:45.561Z,90.20
2018-04-06T01:51:13.035Z,90.20
2018-04-06T01:53:40.691Z,90.20
2018-04-06T01:56:08.222Z,90.20
2018-04-06T01:58:36.424Z,90.30
2018-04-06T02:01:04.248Z,90.30
2018-04-06T02:03:31.880Z,90.30
2018-04-06T02:05:59.444Z,90.30
2018-04-06T02:08:27.361Z,90.30
2018-04-06T02:10:54.839Z,90.30
2018-04-06T02:13:22.543Z,90.30
2018-04-06T02:15:50.444Z,90.30
2018-04-06T02:18:18.849Z,90.40
2018-04-06T02:20:46.301Z,90.30
2018-04-06T02:23:14.854Z,90.40
2018-04-06T02:25:42.564Z,90.40
2018-04-06T02:28:10.313Z,90.40
2018-04-06T02:30:38.279Z,90.40
2018-04-06T02:33:05.895Z,90.40
2018-04-06T02:35:33.624Z,90.50
2018-04-06T02:38:01.354Z,90.50
2018-04-06T02:40:28.941Z,90.50
2018-04-06T02:42:56.649Z,90.60
2018-04-06T02:45:24.988Z,90.70
2018-04-06T02:47:52.686Z,90.70
2018-04-06T02:50:21.411Z,90.70
2018-04-06T02:52:49.140Z,90.70
2018-04-06T02:55:16.885Z,90.80
2018-04-06T02:57:44.615Z,90.90
2018-04-06T03:00:16.021Z,90.90
2018-04-06T03:02:43.667Z,90.90
2018-04-06T03:05:12.093Z,90.80
2018-04-06T03:07:39.898Z,90.80
2018-04-06T03:10:08.272Z,90.80
2018-04-06T03:12:35.888Z,90.80
2018-04-06T03:15:04.364Z,90.70
2018-04-06T03:17:32.103Z,90.70
2018-04-06T03:19:59.730Z,90.70
2018-04-06T03:22:27.402Z,90.80
2018-04-06T03:24:55.060Z,90.80
2018-04-06T03:27:22.680Z,90.80
2018-04-06T03:29:51.524Z,91.00
2018-04-06T03:32:19.892Z,91.00
2018-04-06T03:34:47.764Z,91.00
2018-04-06T03:37:15.364Z,91.10
2018-04-06T03:39:43.064Z,91.10
2018-04-06T03:42:10.747Z,91.10
2018-04-06T03:44:39.137Z,91.10
2018-04-06T03:47:06.868Z,91.10
2018-04-06T03:49:34.495Z,91.10
2018-04-06T03:52:02.015Z,91.20
2018-04-06T03:54:29.703Z,91.20
2018-04-06T03:56:58.213Z,91.00
2018-04-06T03:59:26.595Z,91.10
2018-04-06T04:01:54.371Z,91.10
2018-04-06T04:04:21.893Z,91.10
2018-04-06T04:06:49.452Z,91.10
2018-04-06T04:09:17.156Z,91.10
2018-04-06T04:11:44.879Z,91.10
2018-04-06T04:14:14.057Z,91.30
2018-04-06T04:16:41.777Z,91.20
2018-04-06T04:19:09.211Z,91.30
2018-04-06T04:21:37.658Z,91.30
2018-04-06T04:24:05.298Z,91.30
2018-04-06T04:26:32.955Z,91.30
2018-04-06T04:29:00.544Z,91.30
2018-04-06T04:31:28.356Z,91.30
2018-04-06T04:33:56.105Z,91.30
2018-04-06T04:36:24.671Z,91.30
2018-04-06T04:38:54.433Z,91.30
2018-04-06T04:41:22.099Z,91.30
2018-04-06T04:43:49.736Z,91.40
2018-04-06T04:46:17.414Z,91.30
2018-04-06T04:48:45.423Z,91.30
2018-04-06T04:51:12.945Z,91.30
2018-04-06T04:53:47.285Z,91.60
2018-04-06T04:56:14.721Z,91.20
2018-04-06T04:58:42.431Z,91.30
2018-04-06T05:01:18.077Z,91.40
2018-04-06T05:03:45.591Z,91.40
2018-04-06T05:06:13.033Z,91.40
2018-04-06T05:08:40.504Z,91.40
2018-04-06T05:11:07.935Z,91.40
2018-04-06T05:13:35.667Z,91.40
2018-04-06T05:16:03.708Z,91.40
2018-04-06T05:18:31.951Z,91.40
2018-04-06T05:20:59.380Z,91.40
2018-04-06T05:23:27.712Z,91.50
2018-04-06T05:25:55.160Z,91.40
2018-04-06T05:28:43.630Z,91.50
2018-04-06T05:31:11.083Z,91.80
2018-04-06T05:33:38.637Z,91.50
2018-04-06T05:36:06.078Z,91.50
2018-04-06T05:38:33.520Z,91.80
2018-04-06T05:41:01.014Z,91.50
2018-04-06T05:43:28.485Z,91.60
2018-04-06T05:45:55.930Z,91.50
2018-04-06T05:48:23.473Z,91.60
2018-04-06T05:50:50.941Z,91.50
2018-04-06T05:53:18.397Z,91.50
2018-04-06T05:55:45.873Z,91.50
2018-04-06T05:58:13.318Z,91.50
2018-04-06T06:00:40.988Z,91.40
2018-04-06T06:03:08.449Z,91.40
2018-04-06T06:05:36.386Z,91.40
2018-04-06T06:08:04.805Z,91.40
2018-04-06T06:10:32.236Z,91.40
2018-04-06T06:13:02.256Z,91.40
2018-04-06T06:15:29.693Z,91.30
2018-04-06T06:17:57.130Z,91.20
2018-04-06T06:20:42.596Z,91.20
2018-04-06T06:23:10.829Z,91.10
2018-04-06T06:25:38.368Z,91.10
2018-04-06T06:28:05.804Z,91.10
2018-04-06T06:30:33.259Z,91.10
2018-04-06T06:33:01.476Z,91.00
2018-04-06T06:35:29.073Z,91.00
2018-04-06T06:37:56.505Z,91.00
2018-04-06T06:40:24.549Z,90.90
2018-04-06T06:42:52.047Z,90.80
2018-04-06T06:45:19.476Z,90.70
2018-04-06T06:47:46.940Z,90.70
2018-04-06T06:50:15.329Z,90.60
2018-04-06T06:52:43.079Z,90.50
2018-04-06T06:55:10.538Z,90.40
2018-04-06T06:57:37.979Z,90.40
2018-04-06T07:00:05.445Z,90.30
2018-04-06T07:02:32.904Z,90.20
2018-04-06T07:05:00.348Z,90.10
2018-04-06T07:07:27.900Z,90.10
2018-04-06T07:09:55.337Z,90.00
2018-04-06T07:12:23.555Z,89.80
2018-04-06T07:14:51.016Z,89.80
2018-04-06T07:17:18.458Z,89.40
2018-04-06T07:19:46.024Z,89.10
2018-04-06T07:22:13.465Z,88.90
2018-04-06T07:24:40.893Z,88.70
2018-04-06T07:27:09.187Z,88.20
2018-04-06T07:29:36.754Z,88.20
2018-04-06T07:32:04.184Z,87.90
2018-04-06T07:34:32.384Z,87.50
2018-04-06T07:36:59.879Z,87.40
2018-04-06T07:39:27.366Z,87.20
2018-04-06T07:41:54.795Z,87.00
2018-04-06T07:44:22.292Z,86.70
2018-04-06T07:46:49.697Z,86.30
2018-04-06T07:49:17.148Z,86.10
2018-04-06T07:51:44.585Z,85.60
2018-04-06T07:54:12.316Z,85.20
2018-04-06T07:56:40.525Z,84.20
2018-04-06T07:59:07.957Z,84.50
2018-04-06T08:01:36.177Z,82.80
2018-04-06T08:04:03.606Z,82.70
2018-04-06T08:06:31.060Z,82.60
2018-04-06T08:11:49.240Z,82.10
2018-04-06T08:14:16.960Z,82.00
2018-04-06T08:16:44.423Z,81.80
2018-04-06T08:19:11.836Z,81.40
2018-04-06T08:21:39.271Z,80.80
2018-04-06T08:24:06.725Z,80.70
2018-04-06T08:26:34.244Z,79.70
2018-04-06T08:29:01.686Z,79.20
2018-04-06T08:31:29.137Z,79.50
2018-04-06T08:33:56.572Z,78.40
2018-04-06T08:36:24.024Z,77.90
2018-04-06T08:38:52.431Z,77.30
2018-04-06T08:41:20.015Z,76.50
2018-04-06T08:43:47.440Z,75.90
2018-04-06T08:46:16.121Z,76.10
2018-04-06T08:48:43.554Z,75.80
2018-04-06T08:51:10.977Z,74.80
2018-04-06T08:53:39.209Z,74.00
2018-04-06T08:56:06.636Z,73.90
2018-04-06T08:58:34.283Z,73.40
2018-04-06T09:01:02.538Z,72.20
2018-04-06T09:03:29.985Z,72.20
2018-04-06T09:05:57.449Z,71.50
2018-04-06T09:08:24.875Z,71.80
2018-04-06T09:10:52.319Z,71.70
2018-04-06T09:13:19.842Z,71.20
2018-04-06T09:15:48.040Z,70.30
2018-04-06T09:18:15.491Z,70.20
2018-04-06T09:20:42.934Z,70.10
2018-04-06T09:23:22.441Z,67.90
2018-04-06T09:25:49.869Z,67.90
2018-04-06T09:28:17.491Z,67.80
2018-04-06T09:30:45.697Z,66.70
2018-04-06T09:33:13.116Z,66.70
2018-04-06T09:35:41.344Z,66.00
2018-04-06T09:38:08.792Z,65.90
2018-04-06T09:40:36.221Z,65.50
2018-04-06T09:43:04.484Z,64.90
2018-04-06T09:45:32.676Z,64.40
2018-04-06T09:48:00.200Z,64.40
2018-04-06T09:50:27.632Z,63.70
2018-04-06T09:52:58.779Z,62.40
2018-04-06T09:55:26.220Z,61.50
2018-04-06T09:57:54.820Z,60.40
2018-04-06T10:00:28.112Z,60.80
2018-04-06T10:02:56.577Z,60.10
2018-04-06T10:05:23.954Z,59.80
2018-04-06T10:07:51.393Z,59.40
2018-04-06T10:10:18.865Z,59.10
2018-04-06T10:12:46.292Z,59.00
2018-04-06T10:15:13.729Z,58.50
2018-04-06T10:17:42.447Z,57.90
2018-04-06T10:20:09.888Z,58.40
2018-04-06T10:22:37.312Z,57.80
2018-04-06T10:25:04.802Z,56.50
2018-04-06T10:27:32.219Z,56.20
2018-04-06T10:29:59.660Z,56.70
2018-04-06T10:32:27.116Z,56.40
2018-04-06T10:34:54.608Z,56.20
2018-04-06T10:37:22.812Z,55.20
2018-04-06T10:39:50.296Z,55.20
2018-04-06T10:42:17.726Z,55.40
2018-04-06T10:44:45.151Z,54.90
2018-04-06T10:47:13.797Z,53.70
2018-04-06T10:49:41.241Z,53.70
2018-04-06T10:52:08.672Z,52.80
2018-04-06T10:54:36.137Z,52.00
2018-04-06T10:57:03.572Z,51.90
2018-04-06T10:59:31.767Z,50.80
2018-04-06T11:01:59.292Z,50.80
2018-04-06T11:04:26.764Z,50.90
2018-04-06T11:06:54.968Z,50.60
2018-04-06T11:09:22.396Z,50.60
2018-04-06T11:11:50.656Z,48.80
2018-04-06T11:14:18.088Z,48.80
2018-04-06T11:16:45.527Z,49.20
2018-04-06T11:19:13.303Z,48.90
2018-04-06T11:21:40.732Z,49.10
2018-04-06T11:24:08.164Z,48.40
2018-04-06T11:26:36.422Z,48.40
2018-04-06T11:29:03.847Z,48.40
2018-04-06T11:31:31.276Z,48.10
2018-04-06T11:33:58.743Z,47.80
2018-04-06T11:36:26.269Z,47.50
2018-04-06T11:38:54.478Z,47.20
2018-04-06T11:41:21.925Z,47.70
2018-04-06T11:43:49.360Z,47.20
2018-04-06T11:46:18.617Z,46.40
2018-04-06T11:48:46.052Z,46.30
2018-04-06T11:51:13.844Z,46.70
2018-04-06T11:53:41.275Z,46.50
2018-04-06T11:56:08.761Z,46.00
2018-04-06T11:58:36.447Z,44.40
2018-04-06T12:01:03.885Z,44.50
2018-04-06T12:03:31.407Z,45.10
2018-04-06T12:05:58.836Z,45.20
2018-04-06T12:08:27.066Z,43.80
2018-04-06T12:10:54.502Z,43.80
2018-04-06T12:13:22.740Z,44.40
2018-04-06T12:15:50.947Z,44.60
2018-04-06T12:18:18.387Z,44.50
2018-04-06T12:20:46.820Z,44.20
2018-04-06T12:23:14.272Z,44.20
2018-04-06T12:25:41.724Z,44.00
2018-04-06T12:28:09.185Z,44.00
2018-04-06T12:30:36.628Z,43.90
2018-04-06T12:33:08.053Z,43.40
2018-04-06T12:35:35.516Z,42.80
2018-04-06T12:38:02.936Z,42.60
2018-04-06T12:40:30.464Z,41.90
2018-04-06T12:43:01.915Z,41.70
2018-04-06T12:45:30.068Z,41.10
2018-04-06T12:47:57.593Z,41.10
2018-04-06T12:53:31.774Z,40.70
2018-04-06T12:55:59.205Z,40.90
2018-04-06T12:58:26.644Z,40.90
2018-04-06T13:00:54.876Z,40.20
2018-04-06T13:03:22.312Z,40.10
2018-04-06T13:05:49.745Z,40.50
2018-04-06T13:08:17.304Z,40.20
2018-04-06T13:10:44.736Z,40.20
2018-04-06T13:13:13.921Z,39.90
2018-04-06T13:15:41.400Z,39.90
2018-04-06T13:18:09.695Z,38.70
2018-04-06T13:20:37.140Z,38.50
2018-04-06T13:23:05.701Z,38.80
2018-04-06T13:28:25.497Z,39.10
2018-04-06T13:30:53.249Z,39.00
2018-04-06T13:33:20.701Z,38.50
2018-04-06T13:35:48.238Z,38.40
2018-04-06T13:38:15.676Z,38.10
2018-04-06T13:40:43.108Z,37.90
2018-04-06T13:43:11.348Z,37.80
2018-04-06T13:45:38.797Z,37.70
2018-04-06T13:48:21.316Z,37.90
2018-04-06T13:50:48.760Z,37.50
2018-04-06T13:53:16.210Z,37.30
2018-04-06T13:55:43.756Z,37.10
2018-04-06T13:58:11.237Z,36.50
2018-04-06T14:00:38.809Z,37.00
2018-04-06T14:03:06.252Z,37.10
2018-04-06T14:05:33.706Z,36.60
2018-04-06T14:08:01.192Z,36.30
2018-04-06T14:10:40.739Z,35.90
2018-04-06T14:13:08.192Z,35.90
2018-04-06T14:15:35.709Z,35.50
2018-04-06T14:18:03.144Z,34.60
2018-04-06T14:20:30.587Z,35.00
2018-04-06T14:22:59.541Z,34.60
2018-04-06T14:25:26.981Z,34.60
2018-04-06T14:27:54.590Z,34.60
2018-04-06T14:30:22.036Z,34.50
2018-04-06T14:32:49.509Z,34.60
2018-04-06T14:35:16.988Z,35.00
2018-04-06T14:37:44.433Z,35.20
2018-04-06T14:40:12.642Z,34.70
2018-04-06T14:42:40.156Z,34.60
2018-04-06T14:45:07.603Z,33.90
2018-04-06T14:47:35.064Z,33.70
2018-04-06T14:50:02.508Z,33.70
2018-04-06T14:52:30.040Z,34.10
2018-04-06T14:54:57.484Z,34.10
2018-04-06T14:57:25.031Z,34.00
2018-04-06T14:59:52.480Z,34.30
2018-04-06T15:02:19.944Z,33.90
2018-04-06T15:04:47.397Z,33.80
2018-04-06T15:07:15.696Z,33.70
2018-04-06T15:09:43.195Z,33.60
2018-04-06T15:12:11.610Z,33.80
2018-04-06T15:14:39.819Z,33.80
2018-04-06T15:17:07.286Z,33.70
2018-04-06T15:19:36.893Z,33.60
2018-04-06T15:22:04.340Z,33.40
2018-04-06T15:24:31.959Z,33.30
2018-04-06T15:27:00.152Z,32.70
2018-04-06T15:29:27.596Z,32.60
2018-04-06T15:31:56.832Z,32.30
2018-04-06T15:34:24.316Z,32.30
2018-04-06T15:36:51.767Z,32.20
2018-04-06T15:39:19.196Z,32.40
2018-04-06T15:41:46.766Z,32.20
2018-04-06T15:44:15.053Z,31.90
2018-04-06T15:46:42.501Z,31.60
2018-04-06T15:49:09.968Z,31.40
2018-04-06T15:51:37.449Z,31.20
2018-04-06T15:54:04.892Z,31.00
2018-04-06T15:56:34.401Z,31.20
2018-04-06T15:59:02.211Z,31.30
2018-04-06T16:01:29.665Z,31.80
2018-04-06T16:03:58.308Z,31.30
2018-04-06T16:06:30.943Z,31.30
2018-04-06T16:08:58.504Z,31.40
2018-04-06T16:11:25.992Z,31.60
2018-04-06T16:13:53.464Z,32.10
2018-04-06T16:16:20.953Z,32.40
2018-04-06T16:18:49.165Z,32.80
2018-04-06T16:21:16.600Z,32.80
2018-04-06T16:23:44.916Z,33.10
2018-04-06T16:26:12.416Z,33.10
2018-04-06T16:28:39.792Z,33.00
2018-04-06T16:31:08.020Z,33.50
2018-04-06T16:33:35.784Z,33.40
2018-04-06T16:36:03.223Z,33.50
2018-04-06T16:38:30.658Z,33.60
2018-04-06T16:40:58.184Z,33.90
2018-04-06T16:43:25.655Z,34.10
2018-04-06T16:45:53.076Z,34.10
2018-04-06T16:48:20.528Z,34.70
2018-04-06T16:50:47.969Z,34.80
2018-04-06T16:53:17.604Z,34.80
2018-04-06T16:55:45.032Z,34.70
2018-04-06T16:58:12.460Z,34.80
2018-04-06T17:00:45.068Z,35.00
2018-04-06T17:03:12.504Z,35.10
2018-04-06T17:05:39.936Z,35.40
2018-04-06T17:08:07.508Z,35.50
2018-04-06T17:10:35.767Z,36.40
2018-04-06T17:13:10.932Z,35.80
2018-04-06T17:15:38.332Z,35.80
2018-04-06T17:18:05.762Z,36.10
2018-04-06T17:20:33.212Z,36.10
2018-04-06T17:23:00.652Z,36.30
2018-04-06T17:25:29.005Z,36.40
2018-04-06T17:27:56.403Z,36.40
2018-04-06T17:30:23.840Z,36.60
2018-04-06T17:32:52.995Z,37.10
2018-04-06T17:35:21.392Z,37.10
2018-04-06T17:37:48.823Z,37.40
2018-04-06T17:40:16.398Z,37.60
2018-04-06T17:42:43.829Z,37.80
2018-04-06T17:45:12.055Z,37.90
2018-04-06T17:47:39.480Z,37.90
2018-04-06T17:50:07.055Z,38.00
2018-04-06T17:52:34.484Z,38.20
2018-04-06T17:55:02.685Z,38.40
2018-04-06T17:57:30.313Z,38.40
2018-04-06T17:59:57.732Z,38.50
2018-04-06T18:02:25.932Z,38.80
2018-04-06T18:04:53.404Z,38.70
2018-04-06T18:07:20.869Z,39.00
2018-04-06T18:09:48.310Z,39.10
2018-04-06T18:12:15.864Z,39.10
2018-04-06T18:14:43.305Z,39.30
2018-04-06T18:17:11.633Z,39.60
2018-04-06T18:19:39.077Z,39.60
2018-04-06T18:22:07.509Z,39.70
2018-04-06T18:24:35.708Z,40.00
2018-04-06T18:27:03.192Z,40.00
2018-04-06T18:29:30.632Z,40.00
2018-04-06T18:31:58.096Z,40.20
2018-04-06T18:34:28.064Z,40.40
2018-04-06T18:36:55.636Z,40.60
2018-04-06T18:39:23.847Z,40.90
2018-04-06T18:41:51.287Z,40.80
2018-04-06T18:44:25.128Z,41.60
2018-04-06T18:46:52.573Z,41.10
2018-04-06T18:49:20.042Z,41.20
2018-04-06T18:51:47.484Z,41.40
2018-04-06T18:54:14.936Z,41.50
2018-04-06T18:56:42.427Z,41.60
2018-04-06T18:59:09.909Z,41.70
2018-04-06T19:01:37.352Z,41.80
2018-04-06T19:04:04.792Z,42.00
2018-04-06T19:06:32.322Z,42.10
2018-04-06T19:08:59.784Z,42.20
2018-04-06T19:11:27.226Z,42.30
2018-04-06T19:13:55.965Z,42.50
2018-04-06T19:16:23.429Z,42.70
2018-04-06T19:18:50.856Z,42.80
2018-04-06T19:21:18.311Z,42.90
2018-04-06T19:23:45.792Z,42.90
2018-04-06T19:26:13.232Z,43.00
2018-04-06T19:28:40.689Z,43.20
2018-04-06T19:31:08.221Z,43.40
2018-04-06T19:33:35.672Z,43.40
2018-04-06T19:36:08.225Z,43.50
2018-04-06T19:38:35.686Z,43.70
2018-04-06T19:41:03.116Z,43.70
2018-04-06T19:43:30.576Z,43.80
2018-04-06T19:45:58.327Z,43.90
2018-04-06T19:48:25.778Z,44.10
2018-04-06T19:50:54.113Z,44.20
2018-04-06T19:53:22.344Z,44.40
2018-04-06T19:55:49.800Z,44.00
2018-04-06T19:58:17.253Z,44.50
2018-04-06T20:00:44.939Z,44.60
2018-04-06T20:03:12.377Z,44.70
2018-04-06T20:05:39.820Z,44.80
2018-04-06T20:08:07.337Z,44.90
2018-04-06T20:10:35.545Z,45.10
2018-04-06T20:13:02.971Z,45.10
2018-04-06T20:15:31.515Z,45.30
2018-04-06T20:17:58.952Z,45.30
2018-04-06T20:20:28.384Z,45.30
2018-04-06T20:22:56.017Z,45.30
2018-04-06T20:25:23.464Z,45.40
2018-04-06T20:27:50.905Z,45.60
2018-04-06T20:30:18.400Z,45.70
2018-04-06T20:32:46.019Z,45.80
2018-04-06T20:35:20.120Z,46.50
2018-04-06T20:37:48.416Z,46.10
2018-04-06T20:40:15.860Z,46.00
2018-04-06T20:42:44.223Z,46.30
2018-04-06T20:45:11.856Z,46.20
2018-04-06T20:47:42.856Z,46.40
2018-04-06T20:50:22.526Z,46.40
2018-04-06T20:52:55.978Z,46.50
2018-04-06T20:55:24.194Z,46.70
2018-04-06T20:57:56.444Z,46.80
2018-04-06T21:00:23.914Z,46.80
2018-04-06T21:02:51.442Z,46.90
2018-04-06T21:05:35.705Z,47.00
2018-04-06T21:08:03.167Z,47.10
2018-04-06T21:10:30.605Z,47.20
2018-04-06T21:13:00.056Z,47.50
2018-04-06T21:15:27.495Z,47.40
2018-04-06T21:17:55.829Z,47.60
2018-04-06T21:20:23.304Z,47.60
2018-04-06T21:22:51.529Z,49.20
2018-04-06T21:25:18.960Z,48.60
2018-04-06T21:27:46.420Z,47.90
2018-04-06T21:30:13.853Z,48.80
2018-04-06T21:32:42.157Z,49.00
2018-04-06T21:35:09.590Z,49.00
2018-04-06T21:37:37.818Z,49.20
2018-04-06T21:42:56.499Z,49.40
2018-04-06T21:45:23.924Z,49.30
2018-04-06T21:47:51.452Z,49.50
2018-04-06T21:50:19.658Z,49.70
2018-04-06T21:52:47.157Z,49.70
2018-04-06T21:55:14.606Z,49.70
2018-04-06T21:57:42.064Z,49.80
2018-04-06T22:00:12.341Z,50.00
2018-04-06T22:02:39.777Z,50.00
2018-04-06T22:05:08.308Z,50.20
2018-04-06T22:07:35.739Z,50.10
2018-04-06T22:10:03.181Z,50.30
2018-04-06T22:12:31.404Z,50.50
2018-04-06T22:14:58.864Z,50.50
2018-04-06T22:17:26.300Z,50.60
2018-04-06T22:19:53.815Z,50.70
2018-04-06T22:22:22.012Z,50.90
2018-04-06T22:24:49.476Z,50.90
2018-04-06T22:27:16.905Z,50.90
2018-04-06T22:29:45.140Z,51.50
2018-04-06T22:32:12.581Z,51.20
2018-04-06T22:34:40.016Z,51.20
2018-04-06T22:37:07.749Z,51.20
2018-04-06T22:39:35.207Z,51.30
2018-04-06T22:42:02.636Z,51.40
2018-04-06T22:44:30.099Z,51.30
2018-04-06T22:46:57.521Z,51.40
2018-04-06T22:49:24.947Z,51.40
2018-04-06T22:51:52.560Z,51.50
2018-04-06T22:54:19.999Z,51.60
2018-04-06T22:56:47.432Z,51.60
2018-04-06T22:59:15.738Z,51.70
2018-04-06T23:01:43.159Z,51.70
2018-04-06T23:04:11.357Z,51.80
2018-04-06T23:06:56.581Z,51.80
2018-04-06T23:09:24.007Z,51.90
2018-04-06T23:11:51.468Z,52.00
2018-04-06T23:14:18.899Z,52.10
2018-04-06T23:16:46.352Z,52.00
2018-04-06T23:19:13.792Z,52.10
2018-04-06T23:21:42.200Z,52.30
2018-04-06T23:24:09.633Z,52.20
2018-04-06T23:26:37.860Z,52.40
2018-04-06T23:29:05.284Z,52.30
2018-04-06T23:31:32.767Z,52.40
2018-04-06T23:34:00.193Z,52.50
2018-04-06T23:36:30.473Z,52.60
2018-04-06T23:38:58.088Z,52.50
2018-04-06T23:41:25.528Z,52.60
2018-04-06T23:43:53.730Z,52.80
2018-04-06T23:46:21.193Z,52.80
2018-04-06T23:48:48.652Z,52.80
2018-04-06T23:51:16.076Z,52.90
2018-04-06T23:53:44.361Z,53.00
2018-04-06T23:56:11.793Z,53.00
2018-04-06T23:58:39.244Z,53.10
